Terminal Aerodrome Forecast
Issued by NWS Grand Rapids, MI

Home | Current Version | Previous Version | Text Only | Print | Product List | Glossary On
Versions: 1 2 3 4 5 6 7 8 9 10 11 12 13 14 15
000
FTUS43 KGRR 211139
TAFGRR
TAF
KGRR 211139Z 2112/2212 00000KT P6SM MIFG SCT001 BKN250
     FM211300 16004KT P6SM BKN250
     FM220600 16005KT 5SM -TSRA BR SCT025 BKN060CB=

USA.gov is the U.S. government's official web portal to all federal, state and local government web resources and services.